sensor_id;sensor_type;location;lat;lon;timestamp;P1;durP1;ratioP1;P2;durP2;ratioP2
1591;SDS011;789;51.612;7.510;2024-01-15T00:01:34;47.80;;;28.48;;
1591;SDS011;789;51.612;7.510;2024-01-15T00:04:01;44.58;;;27.02;;
1591;SDS011;789;51.612;7.510;2024-01-15T00:06:28;50.20;;;28.23;;
1591;SDS011;789;51.612;7.510;2024-01-15T00:08:55;54.50;;;29.40;;
1591;SDS011;789;51.612;7.510;2024-01-15T00:11:23;55.00;;;29.15;;
1591;SDS011;789;51.612;7.510;2024-01-15T00:13:49;49.67;;;28.95;;
1591;SDS011;789;51.612;7.510;2024-01-15T00:16:17;55.50;;;30.45;;
1591;SDS011;789;51.612;7.510;2024-01-15T00:18:45;54.83;;;31.58;;
1591;SDS011;789;51.612;7.510;2024-01-15T00:21:11;55.80;;;29.90;;
1591;SDS011;789;51.612;7.510;2024-01-15T00:23:39;56.72;;;31.05;;
1591;SDS011;789;51.612;7.510;2024-01-15T00:26:08;50.45;;;30.08;;
1591;SDS011;789;51.612;7.510;2024-01-15T00:28:35;48.42;;;29.42;;
1591;SDS011;789;51.612;7.510;2024-01-15T00:31:02;56.47;;;30.58;;
1591;SDS011;789;51.612;7.510;2024-01-15T00:33:30;56.15;;;32.00;;
1591;SDS011;789;51.612;7.510;2024-01-15T00:35:58;59.03;;;31.65;;
1591;SDS011;789;51.612;7.510;2024-01-15T00:38:25;56.15;;;31.98;;
1591;SDS011;789;51.612;7.510;2024-01-15T00:40:51;58.20;;;32.33;;
1591;SDS011;789;51.612;7.510;2024-01-15T00:43:18;60.35;;;30.85;;
1591;SDS011;789;51.612;7.510;2024-01-15T00:45:45;51.78;;;29.70;;
1591;SDS011;789;51.612;7.510;2024-01-15T00:48:12;51.40;;;29.85;;
1591;SDS011;789;51.612;7.510;2024-01-15T00:50:39;54.85;;;29.50;;
1591;SDS011;789;51.612;7.510;2024-01-15T00:53:07;55.70;;;31.92;;
1591;SDS011;789;51.612;7.510;2024-01-15T00:55:33;49.85;;;27.35;;
1591;SDS011;789;51.612;7.510;2024-01-15T00:58:01;52.42;;;28.17;;
1591;SDS011;789;51.612;7.510;2024-01-15T01:00:27;51.22;;;28.30;;
1591;SDS011;789;51.612;7.510;2024-01-15T01:02:54;54.65;;;28.88;;
1591;SDS011;789;51.612;7.510;2024-01-15T01:05:21;53.53;;;29.95;;
1591;SDS011;789;51.612;7.510;2024-01-15T01:07:47;53.20;;;30.30;;
1591;SDS011;789;51.612;7.510;2024-01-15T01:10:16;54.13;;;29.70;;
1591;SDS011;789;51.612;7.510;2024-01-15T01:12:43;53.87;;;29.17;;
1591;SDS011;789;51.612;7.510;2024-01-15T01:15:09;52.58;;;29.52;;
1591;SDS011;789;51.612;7.510;2024-01-15T01:17:36;55.50;;;30.83;;
1591;SDS011;789;51.612;7.510;2024-01-15T01:20:03;54.78;;;29.75;;
1591;SDS011;789;51.612;7.510;2024-01-15T01:22:33;51.45;;;28.15;;
1591;SDS011;789;51.612;7.510;2024-01-15T01:25:00;52.43;;;28.13;;
1591;SDS011;789;51.612;7.510;2024-01-15T01:27:28;44.95;;;26.33;;
1591;SDS011;789;51.612;7.510;2024-01-15T01:29:55;46.45;;;25.65;;
1591;SDS011;789;51.612;7.510;2024-01-15T01:32:22;54.53;;;26.00;;
1591;SDS011;789;51.612;7.510;2024-01-15T01:34:48;45.55;;;25.73;;
1591;SDS011;789;51.612;7.510;2024-01-15T01:37:15;47.40;;;27.10;;
1591;SDS011;789;51.612;7.510;2024-01-15T01:39:43;47.75;;;26.02;;
1591;SDS011;789;51.612;7.510;2024-01-15T01:42:10;45.85;;;25.40;;
1591;SDS011;789;51.612;7.510;2024-01-15T01:44:39;48.53;;;26.40;;
1591;SDS011;789;51.612;7.510;2024-01-15T01:47:05;46.47;;;26.23;;
1591;SDS011;789;51.612;7.510;2024-01-15T01:49:32;47.10;;;26.67;;
1591;SDS011;789;51.612;7.510;2024-01-15T01:52:01;51.83;;;26.27;;
1591;SDS011;789;51.612;7.510;2024-01-15T01:54:31;47.58;;;27.20;;
1591;SDS011;789;51.612;7.510;2024-01-15T01:56:58;46.13;;;25.70;;
1591;SDS011;789;51.612;7.510;2024-01-15T01:59:28;49.97;;;26.27;;
1591;SDS011;789;51.612;7.510;2024-01-15T02:01:57;48.40;;;24.77;;
1591;SDS011;789;51.612;7.510;2024-01-15T02:04:27;46.73;;;27.00;;
1591;SDS011;789;51.612;7.510;2024-01-15T02:06:56;45.10;;;25.23;;
1591;SDS011;789;51.612;7.510;2024-01-15T02:09:22;42.72;;;23.00;;
1591;SDS011;789;51.612;7.510;2024-01-15T02:11:50;46.72;;;25.08;;
1591;SDS011;789;51.612;7.510;2024-01-15T02:14:17;42.65;;;24.50;;
1591;SDS011;789;51.612;7.510;2024-01-15T02:16:43;44.50;;;25.02;;
1591;SDS011;789;51.612;7.510;2024-01-15T02:19:15;45.60;;;24.42;;
1591;SDS011;789;51.612;7.510;2024-01-15T02:21:42;43.13;;;24.33;;
1591;SDS011;789;51.612;7.510;2024-01-15T02:24:11;43.42;;;25.05;;
1591;SDS011;789;51.612;7.510;2024-01-15T02:26:37;43.85;;;26.15;;
1591;SDS011;789;51.612;7.510;2024-01-15T02:29:04;46.25;;;26.05;;
1591;SDS011;789;51.612;7.510;2024-01-15T02:31:33;44.70;;;25.92;;
1591;SDS011;789;51.612;7.510;2024-01-15T02:33:59;45.97;;;25.55;;
1591;SDS011;789;51.612;7.510;2024-01-15T02:36:26;44.88;;;24.08;;
1591;SDS011;789;51.612;7.510;2024-01-15T02:38:53;48.58;;;26.20;;
1591;SDS011;789;51.612;7.510;2024-01-15T02:41:21;42.40;;;25.33;;
1591;SDS011;789;51.612;7.510;2024-01-15T02:43:47;45.20;;;25.30;;
1591;SDS011;789;51.612;7.510;2024-01-15T02:46:14;45.77;;;24.87;;
1591;SDS011;789;51.612;7.510;2024-01-15T02:48:41;42.75;;;23.85;;
1591;SDS011;789;51.612;7.510;2024-01-15T02:51:08;46.75;;;26.05;;
1591;SDS011;789;51.612;7.510;2024-01-15T02:53:35;41.60;;;23.13;;
1591;SDS011;789;51.612;7.510;2024-01-15T02:56:02;44.53;;;24.40;;
1591;SDS011;789;51.612;7.510;2024-01-15T02:58:31;43.72;;;24.75;;
1591;SDS011;789;51.612;7.510;2024-01-15T03:00:57;41.35;;;25.05;;
1591;SDS011;789;51.612;7.510;2024-01-15T03:03:24;46.40;;;24.37;;
1591;SDS011;789;51.612;7.510;2024-01-15T03:05:51;38.25;;;23.20;;
1591;SDS011;789;51.612;7.510;2024-01-15T03:08:18;55.67;;;25.85;;
1591;SDS011;789;51.612;7.510;2024-01-15T03:10:44;47.45;;;25.35;;
1591;SDS011;789;51.612;7.510;2024-01-15T03:13:11;40.53;;;24.35;;
1591;SDS011;789;51.612;7.510;2024-01-15T03:15:39;47.88;;;25.38;;
1591;SDS011;789;51.612;7.510;2024-01-15T03:18:06;38.33;;;22.50;;
1591;SDS011;789;51.612;7.510;2024-01-15T03:20:33;38.03;;;22.33;;
1591;SDS011;789;51.612;7.510;2024-01-15T03:22:59;44.93;;;23.27;;
1591;SDS011;789;51.612;7.510;2024-01-15T03:25:26;43.25;;;23.75;;
1591;SDS011;789;51.612;7.510;2024-01-15T03:27:53;40.45;;;23.95;;
1591;SDS011;789;51.612;7.510;2024-01-15T03:30:20;48.77;;;24.30;;
1591;SDS011;789;51.612;7.510;2024-01-15T03:32:48;40.27;;;22.60;;
1591;SDS011;789;51.612;7.510;2024-01-15T03:35:15;40.83;;;21.98;;
1591;SDS011;789;51.612;7.510;2024-01-15T03:37:41;39.80;;;23.50;;
1591;SDS011;789;51.612;7.510;2024-01-15T03:40:09;41.72;;;21.80;;
1591;SDS011;789;51.612;7.510;2024-01-15T03:42:36;37.03;;;21.80;;
1591;SDS011;789;51.612;7.510;2024-01-15T03:45:03;36.17;;;23.03;;
1591;SDS011;789;51.612;7.510;2024-01-15T03:47:30;39.30;;;24.10;;
1591;SDS011;789;51.612;7.510;2024-01-15T03:49:59;43.87;;;22.10;;
1591;SDS011;789;51.612;7.510;2024-01-15T03:52:25;33.77;;;21.43;;
1591;SDS011;789;51.612;7.510;2024-01-15T03:54:52;40.58;;;23.00;;
1591;SDS011;789;51.612;7.510;2024-01-15T03:57:19;39.53;;;21.63;;
1591;SDS011;789;51.612;7.510;2024-01-15T03:59:45;34.05;;;21.27;;
1591;SDS011;789;51.612;7.510;2024-01-15T04:02:12;36.90;;;21.30;;
1591;SDS011;789;51.612;7.510;2024-01-15T04:04:40;40.70;;;21.97;;
1591;SDS011;789;51.612;7.510;2024-01-15T04:07:08;37.47;;;22.55;;
1591;SDS011;789;51.612;7.510;2024-01-15T04:09:35;37.88;;;21.20;;
1591;SDS011;789;51.612;7.510;2024-01-15T04:12:02;43.10;;;20.90;;
1591;SDS011;789;51.612;7.510;2024-01-15T04:14:29;37.80;;;22.43;;
1591;SDS011;789;51.612;7.510;2024-01-15T04:16:56;34.53;;;20.30;;
1591;SDS011;789;51.612;7.510;2024-01-15T04:19:22;35.93;;;22.83;;
1591;SDS011;789;51.612;7.510;2024-01-15T04:21:49;33.90;;;21.00;;
1591;SDS011;789;51.612;7.510;2024-01-15T04:24:17;37.45;;;22.30;;
1591;SDS011;789;51.612;7.510;2024-01-15T04:26:44;40.23;;;21.33;;
1591;SDS011;789;51.612;7.510;2024-01-15T04:29:12;39.50;;;21.00;;
1591;SDS011;789;51.612;7.510;2024-01-15T04:31:39;41.20;;;21.73;;
1591;SDS011;789;51.612;7.510;2024-01-15T04:34:07;39.13;;;21.30;;
1591;SDS011;789;51.612;7.510;2024-01-15T04:36:38;35.80;;;21.00;;
1591;SDS011;789;51.612;7.510;2024-01-15T04:39:05;30.00;;;20.40;;
1591;SDS011;789;51.612;7.510;2024-01-15T04:41:33;30.77;;;19.70;;
1591;SDS011;789;51.612;7.510;2024-01-15T04:44:00;29.90;;;19.40;;
1591;SDS011;789;51.612;7.510;2024-01-15T04:46:27;29.13;;;18.35;;
1591;SDS011;789;51.612;7.510;2024-01-15T04:48:54;32.80;;;18.35;;
1591;SDS011;789;51.612;7.510;2024-01-15T04:51:20;35.35;;;19.23;;
1591;SDS011;789;51.612;7.510;2024-01-15T04:53:48;33.70;;;18.43;;
1591;SDS011;789;51.612;7.510;2024-01-15T04:56:14;32.35;;;17.70;;
1591;SDS011;789;51.612;7.510;2024-01-15T04:58:43;30.00;;;17.70;;
1591;SDS011;789;51.612;7.510;2024-01-15T05:01:09;31.55;;;17.85;;
1591;SDS011;789;51.612;7.510;2024-01-15T05:03:37;34.80;;;17.27;;
1591;SDS011;789;51.612;7.510;2024-01-15T05:06:04;26.13;;;16.98;;
1591;SDS011;789;51.612;7.510;2024-01-15T05:08:31;22.85;;;16.02;;
1591;SDS011;789;51.612;7.510;2024-01-15T05:10:58;26.60;;;17.60;;
1591;SDS011;789;51.612;7.510;2024-01-15T05:13:25;27.35;;;16.65;;
1591;SDS011;789;51.612;7.510;2024-01-15T05:15:53;26.20;;;17.05;;
1591;SDS011;789;51.612;7.510;2024-01-15T05:18:19;26.75;;;16.40;;
1591;SDS011;789;51.612;7.510;2024-01-15T05:20:47;25.58;;;15.60;;
1591;SDS011;789;51.612;7.510;2024-01-15T05:23:13;27.35;;;17.27;;
1591;SDS011;789;51.612;7.510;2024-01-15T05:25:41;23.50;;;16.50;;
1591;SDS011;789;51.612;7.510;2024-01-15T05:28:08;23.80;;;16.25;;
1591;SDS011;789;51.612;7.510;2024-01-15T05:30:34;29.00;;;18.27;;
1591;SDS011;789;51.612;7.510;2024-01-15T05:33:03;22.38;;;16.33;;
1591;SDS011;789;51.612;7.510;2024-01-15T05:35:30;25.75;;;16.50;;
1591;SDS011;789;51.612;7.510;2024-01-15T05:37:57;29.23;;;17.35;;
1591;SDS011;789;51.612;7.510;2024-01-15T05:40:23;32.78;;;16.65;;
1591;SDS011;789;51.612;7.510;2024-01-15T05:42:50;26.38;;;16.13;;
1591;SDS011;789;51.612;7.510;2024-01-15T05:45:17;27.20;;;17.48;;
1591;SDS011;789;51.612;7.510;2024-01-15T05:47:43;31.33;;;17.20;;
1591;SDS011;789;51.612;7.510;2024-01-15T05:50:11;33.60;;;19.20;;
1591;SDS011;789;51.612;7.510;2024-01-15T05:52:38;23.10;;;17.17;;
1591;SDS011;789;51.612;7.510;2024-01-15T05:55:05;30.33;;;19.33;;
1591;SDS011;789;51.612;7.510;2024-01-15T05:57:32;34.58;;;18.70;;
1591;SDS011;789;51.612;7.510;2024-01-15T05:59:59;27.88;;;18.65;;
1591;SDS011;789;51.612;7.510;2024-01-15T06:02:26;30.15;;;17.70;;
1591;SDS011;789;51.612;7.510;2024-01-15T06:04:53;28.38;;;18.48;;
1591;SDS011;789;51.612;7.510;2024-01-15T06:07:22;33.78;;;18.60;;
1591;SDS011;789;51.612;7.510;2024-01-15T06:09:49;30.27;;;19.10;;
1591;SDS011;789;51.612;7.510;2024-01-15T06:12:15;26.80;;;17.85;;
1591;SDS011;789;51.612;7.510;2024-01-15T06:14:42;28.50;;;18.48;;
1591;SDS011;789;51.612;7.510;2024-01-15T06:17:09;26.55;;;17.40;;
1591;SDS011;789;51.612;7.510;2024-01-15T06:19:36;26.95;;;17.73;;
1591;SDS011;789;51.612;7.510;2024-01-15T06:22:02;37.35;;;18.98;;
1591;SDS011;789;51.612;7.510;2024-01-15T06:24:31;35.22;;;19.48;;
1591;SDS011;789;51.612;7.510;2024-01-15T06:26:57;30.55;;;18.83;;
1591;SDS011;789;51.612;7.510;2024-01-15T06:29:25;30.98;;;19.67;;
1591;SDS011;789;51.612;7.510;2024-01-15T06:31:52;33.38;;;19.00;;
1591;SDS011;789;51.612;7.510;2024-01-15T06:34:19;41.83;;;18.52;;
1591;SDS011;789;51.612;7.510;2024-01-15T06:36:47;29.75;;;18.42;;
1591;SDS011;789;51.612;7.510;2024-01-15T06:39:14;35.45;;;18.77;;
1591;SDS011;789;51.612;7.510;2024-01-15T06:41:42;22.73;;;17.70;;
1591;SDS011;789;51.612;7.510;2024-01-15T06:44:09;26.83;;;19.10;;
1591;SDS011;789;51.612;7.510;2024-01-15T06:46:36;34.15;;;19.50;;
1591;SDS011;789;51.612;7.510;2024-01-15T06:49:06;27.77;;;17.58;;
1591;SDS011;789;51.612;7.510;2024-01-15T06:51:33;29.95;;;18.88;;
1591;SDS011;789;51.612;7.510;2024-01-15T06:54:00;31.10;;;18.00;;
1591;SDS011;789;51.612;7.510;2024-01-15T06:59:38;26.63;;;17.77;;
1591;SDS011;789;51.612;7.510;2024-01-15T07:02:06;25.95;;;18.02;;
1591;SDS011;789;51.612;7.510;2024-01-15T07:04:32;27.75;;;18.70;;
1591;SDS011;789;51.612;7.510;2024-01-15T07:06:59;28.35;;;18.77;;
1591;SDS011;789;51.612;7.510;2024-01-15T07:09:26;38.35;;;20.55;;
1591;SDS011;789;51.612;7.510;2024-01-15T07:11:54;36.35;;;20.65;;
1591;SDS011;789;51.612;7.510;2024-01-15T07:14:22;36.97;;;20.20;;
1591;SDS011;789;51.612;7.510;2024-01-15T07:16:50;28.70;;;18.33;;
1591;SDS011;789;51.612;7.510;2024-01-15T07:19:16;32.25;;;20.23;;
1591;SDS011;789;51.612;7.510;2024-01-15T07:21:43;36.40;;;19.92;;
1591;SDS011;789;51.612;7.510;2024-01-15T07:24:10;34.25;;;20.25;;
1591;SDS011;789;51.612;7.510;2024-01-15T07:26:37;35.17;;;22.00;;
1591;SDS011;789;51.612;7.510;2024-01-15T07:29:03;32.53;;;20.48;;
1591;SDS011;789;51.612;7.510;2024-01-15T07:31:30;28.02;;;19.55;;
1591;SDS011;789;51.612;7.510;2024-01-15T07:34:00;32.53;;;19.23;;
1591;SDS011;789;51.612;7.510;2024-01-15T07:36:27;30.63;;;19.08;;
1591;SDS011;789;51.612;7.510;2024-01-15T07:38:55;32.63;;;20.25;;
1591;SDS011;789;51.612;7.510;2024-01-15T07:41:24;35.03;;;19.95;;
1591;SDS011;789;51.612;7.510;2024-01-15T07:43:51;29.13;;;19.02;;
1591;SDS011;789;51.612;7.510;2024-01-15T07:46:18;29.05;;;18.50;;
1591;SDS011;789;51.612;7.510;2024-01-15T07:48:44;32.42;;;17.90;;
1591;SDS011;789;51.612;7.510;2024-01-15T07:51:12;33.95;;;18.80;;
1591;SDS011;789;51.612;7.510;2024-01-15T07:53:39;27.60;;;16.85;;
1591;SDS011;789;51.612;7.510;2024-01-15T07:56:06;22.63;;;15.98;;
1591;SDS011;789;51.612;7.510;2024-01-15T07:58:33;24.52;;;15.85;;
1591;SDS011;789;51.612;7.510;2024-01-15T08:01:00;20.75;;;14.10;;
1591;SDS011;789;51.612;7.510;2024-01-15T08:03:26;21.20;;;14.63;;
1591;SDS011;789;51.612;7.510;2024-01-15T08:05:53;20.25;;;13.23;;
1591;SDS011;789;51.612;7.510;2024-01-15T08:08:23;16.98;;;11.73;;
1591;SDS011;789;51.612;7.510;2024-01-15T08:10:51;16.75;;;11.32;;
1591;SDS011;789;51.612;7.510;2024-01-15T08:13:18;15.73;;;9.32;;
1591;SDS011;789;51.612;7.510;2024-01-15T08:15:45;11.32;;;8.65;;
1591;SDS011;789;51.612;7.510;2024-01-15T08:18:12;13.27;;;9.15;;
1591;SDS011;789;51.612;7.510;2024-01-15T08:20:39;11.10;;;7.88;;
1591;SDS011;789;51.612;7.510;2024-01-15T08:23:06;13.75;;;8.45;;
1591;SDS011;789;51.612;7.510;2024-01-15T08:25:35;10.25;;;7.93;;
1591;SDS011;789;51.612;7.510;2024-01-15T08:28:01;22.30;;;9.05;;
1591;SDS011;789;51.612;7.510;2024-01-15T08:30:29;9.70;;;8.57;;
1591;SDS011;789;51.612;7.510;2024-01-15T08:32:55;17.35;;;8.82;;
1591;SDS011;789;51.612;7.510;2024-01-15T08:35:24;10.48;;;9.15;;
1591;SDS011;789;51.612;7.510;2024-01-15T08:37:51;11.73;;;9.05;;
1591;SDS011;789;51.612;7.510;2024-01-15T08:40:19;12.95;;;9.68;;
1591;SDS011;789;51.612;7.510;2024-01-15T08:42:47;14.43;;;9.30;;
1591;SDS011;789;51.612;7.510;2024-01-15T08:45:14;13.60;;;9.35;;
1591;SDS011;789;51.612;7.510;2024-01-15T08:47:40;10.83;;;8.70;;
1591;SDS011;789;51.612;7.510;2024-01-15T08:50:07;14.02;;;9.23;;
1591;SDS011;789;51.612;7.510;2024-01-15T08:52:35;9.15;;;7.28;;
1591;SDS011;789;51.612;7.510;2024-01-15T08:55:02;10.57;;;8.20;;
1591;SDS011;789;51.612;7.510;2024-01-15T08:57:30;12.48;;;9.43;;
1591;SDS011;789;51.612;7.510;2024-01-15T08:59:58;9.98;;;8.27;;
1591;SDS011;789;51.612;7.510;2024-01-15T09:02:25;11.90;;;8.70;;
1591;SDS011;789;51.612;7.510;2024-01-15T09:04:52;13.73;;;10.07;;
1591;SDS011;789;51.612;7.510;2024-01-15T09:07:19;14.02;;;10.20;;
1591;SDS011;789;51.612;7.510;2024-01-15T09:09:47;17.73;;;12.23;;
1591;SDS011;789;51.612;7.510;2024-01-15T09:12:14;15.43;;;10.70;;
1591;SDS011;789;51.612;7.510;2024-01-15T09:14:41;17.15;;;12.23;;
1591;SDS011;789;51.612;7.510;2024-01-15T09:17:09;19.52;;;13.70;;
1591;SDS011;789;51.612;7.510;2024-01-15T09:19:38;21.60;;;15.80;;
1591;SDS011;789;51.612;7.510;2024-01-15T09:22:05;24.20;;;16.17;;
1591;SDS011;789;51.612;7.510;2024-01-15T09:24:32;24.20;;;17.55;;
1591;SDS011;789;51.612;7.510;2024-01-15T09:26:59;24.60;;;16.70;;
1591;SDS011;789;51.612;7.510;2024-01-15T09:29:26;27.83;;;18.10;;
1591;SDS011;789;51.612;7.510;2024-01-15T09:31:52;25.58;;;17.58;;
1591;SDS011;789;51.612;7.510;2024-01-15T09:34:23;25.00;;;17.52;;
1591;SDS011;789;51.612;7.510;2024-01-15T09:36:50;22.95;;;16.58;;
1591;SDS011;789;51.612;7.510;2024-01-15T09:39:17;27.25;;;17.95;;
1591;SDS011;789;51.612;7.510;2024-01-15T09:41:47;23.73;;;16.95;;
1591;SDS011;789;51.612;7.510;2024-01-15T09:44:14;24.92;;;18.10;;
1591;SDS011;789;51.612;7.510;2024-01-15T09:46:42;23.58;;;16.63;;
1591;SDS011;789;51.612;7.510;2024-01-15T09:49:09;22.35;;;16.60;;
1591;SDS011;789;51.612;7.510;2024-01-15T09:51:38;20.30;;;15.45;;
1591;SDS011;789;51.612;7.510;2024-01-15T09:54:05;18.77;;;15.10;;
1591;SDS011;789;51.612;7.510;2024-01-15T09:56:32;18.55;;;14.73;;
1591;SDS011;789;51.612;7.510;2024-01-15T09:58:59;19.13;;;14.27;;
1591;SDS011;789;51.612;7.510;2024-01-15T10:01:26;18.05;;;12.88;;
1591;SDS011;789;51.612;7.510;2024-01-15T10:03:54;19.20;;;12.13;;
1591;SDS011;789;51.612;7.510;2024-01-15T10:06:21;13.55;;;11.15;;
1591;SDS011;789;51.612;7.510;2024-01-15T10:08:50;14.80;;;11.18;;
1591;SDS011;789;51.612;7.510;2024-01-15T10:11:17;13.93;;;10.80;;
1591;SDS011;789;51.612;7.510;2024-01-15T10:13:44;12.05;;;10.07;;
1591;SDS011;789;51.612;7.510;2024-01-15T10:16:11;15.45;;;10.70;;
1591;SDS011;789;51.612;7.510;2024-01-15T10:18:38;14.23;;;10.63;;
1591;SDS011;789;51.612;7.510;2024-01-15T10:21:06;10.75;;;9.15;;
1591;SDS011;789;51.612;7.510;2024-01-15T10:23:33;9.70;;;8.70;;
1591;SDS011;789;51.612;7.510;2024-01-15T10:26:02;11.00;;;8.93;;
1591;SDS011;789;51.612;7.510;2024-01-15T10:28:29;11.38;;;9.32;;
1591;SDS011;789;51.612;7.510;2024-01-15T10:30:58;9.25;;;8.10;;
1591;SDS011;789;51.612;7.510;2024-01-15T10:33:31;10.10;;;8.60;;
1591;SDS011;789;51.612;7.510;2024-01-15T10:35:58;9.63;;;8.63;;
1591;SDS011;789;51.612;7.510;2024-01-15T10:38:26;11.43;;;9.25;;
1591;SDS011;789;51.612;7.510;2024-01-15T10:40:53;10.25;;;8.60;;
1591;SDS011;789;51.612;7.510;2024-01-15T10:43:22;9.95;;;8.95;;
1591;SDS011;789;51.612;7.510;2024-01-15T10:45:50;9.95;;;8.95;;
1591;SDS011;789;51.612;7.510;2024-01-15T10:48:17;8.10;;;7.30;;
1591;SDS011;789;51.612;7.510;2024-01-15T10:50:45;11.02;;;8.38;;
1591;SDS011;789;51.612;7.510;2024-01-15T10:53:14;11.88;;;8.70;;
1591;SDS011;789;51.612;7.510;2024-01-15T10:55:42;11.38;;;8.38;;
1591;SDS011;789;51.612;7.510;2024-01-15T10:58:09;10.65;;;8.85;;
1591;SDS011;789;51.612;7.510;2024-01-15T11:00:38;11.82;;;9.23;;
1591;SDS011;789;51.612;7.510;2024-01-15T11:03:05;8.43;;;7.57;;
1591;SDS011;789;51.612;7.510;2024-01-15T11:05:33;8.43;;;7.30;;
1591;SDS011;789;51.612;7.510;2024-01-15T11:08:00;9.52;;;8.07;;
1591;SDS011;789;51.612;7.510;2024-01-15T11:10:44;11.15;;;7.90;;
1591;SDS011;789;51.612;7.510;2024-01-15T11:13:14;9.82;;;8.82;;
1591;SDS011;789;51.612;7.510;2024-01-15T11:15:55;9.10;;;7.70;;
1591;SDS011;789;51.612;7.510;2024-01-15T11:18:29;11.68;;;8.02;;
1591;SDS011;789;51.612;7.510;2024-01-15T11:23:47;9.70;;;7.80;;
1591;SDS011;789;51.612;7.510;2024-01-15T11:26:27;9.30;;;7.40;;
1591;SDS011;789;51.612;7.510;2024-01-15T11:28:55;8.10;;;6.55;;
1591;SDS011;789;51.612;7.510;2024-01-15T11:31:27;8.95;;;7.25;;
1591;SDS011;789;51.612;7.510;2024-01-15T11:33:55;10.90;;;7.28;;
1591;SDS011;789;51.612;7.510;2024-01-15T11:36:21;7.15;;;6.45;;
1591;SDS011;789;51.612;7.510;2024-01-15T11:42:07;10.18;;;6.63;;
1591;SDS011;789;51.612;7.510;2024-01-15T11:44:37;7.15;;;6.32;;
1591;SDS011;789;51.612;7.510;2024-01-15T11:47:06;8.40;;;6.95;;
1591;SDS011;789;51.612;7.510;2024-01-15T11:49:41;10.70;;;6.57;;
1591;SDS011;789;51.612;7.510;2024-01-15T11:52:24;8.30;;;6.50;;
1591;SDS011;789;51.612;7.510;2024-01-15T11:54:53;6.85;;;6.15;;
1591;SDS011;789;51.612;7.510;2024-01-15T11:57:29;8.40;;;6.10;;
1591;SDS011;789;51.612;7.510;2024-01-15T12:00:04;10.93;;;6.63;;
1591;SDS011;789;51.612;7.510;2024-01-15T12:02:33;8.07;;;5.93;;
1591;SDS011;789;51.612;7.510;2024-01-15T12:05:00;6.35;;;5.75;;
1591;SDS011;789;51.612;7.510;2024-01-15T12:07:28;5.93;;;5.30;;
1591;SDS011;789;51.612;7.510;2024-01-15T12:09:54;9.48;;;5.65;;
1591;SDS011;789;51.612;7.510;2024-01-15T12:12:24;8.30;;;5.43;;
1591;SDS011;789;51.612;7.510;2024-01-15T12:14:59;6.95;;;5.78;;
1591;SDS011;789;51.612;7.510;2024-01-15T12:17:26;6.20;;;5.60;;
1591;SDS011;789;51.612;7.510;2024-01-15T12:19:54;8.37;;;5.20;;
1591;SDS011;789;51.612;7.510;2024-01-15T12:22:22;7.70;;;5.10;;
1591;SDS011;789;51.612;7.510;2024-01-15T12:24:49;12.82;;;6.28;;
1591;SDS011;789;51.612;7.510;2024-01-15T12:27:17;6.97;;;5.53;;
1591;SDS011;789;51.612;7.510;2024-01-15T12:29:44;10.05;;;4.65;;
1591;SDS011;789;51.612;7.510;2024-01-15T12:32:11;8.55;;;5.00;;
1591;SDS011;789;51.612;7.510;2024-01-15T12:34:38;7.43;;;5.28;;
1591;SDS011;789;51.612;7.510;2024-01-15T12:54:22;8.10;;;6.80;;
1591;SDS011;789;51.612;7.510;2024-01-15T12:56:49;14.13;;;7.30;;
1591;SDS011;789;51.612;7.510;2024-01-15T12:59:16;8.10;;;6.23;;
1591;SDS011;789;51.612;7.510;2024-01-15T13:01:43;8.88;;;7.68;;
1591;SDS011;789;51.612;7.510;2024-01-15T13:04:11;10.05;;;7.40;;
1591;SDS011;789;51.612;7.510;2024-01-15T13:06:38;7.80;;;6.30;;
1591;SDS011;789;51.612;7.510;2024-01-15T13:09:05;9.57;;;6.07;;
1591;SDS011;789;51.612;7.510;2024-01-15T13:11:33;6.75;;;5.90;;
1591;SDS011;789;51.612;7.510;2024-01-15T13:13:59;8.02;;;5.90;;
1591;SDS011;789;51.612;7.510;2024-01-15T13:16:26;8.48;;;6.05;;
1591;SDS011;789;51.612;7.510;2024-01-15T13:18:54;8.23;;;6.18;;
1591;SDS011;789;51.612;7.510;2024-01-15T13:21:21;6.85;;;6.05;;
1591;SDS011;789;51.612;7.510;2024-01-15T13:23:50;7.65;;;5.00;;
1591;SDS011;789;51.612;7.510;2024-01-15T13:26:17;5.82;;;4.70;;
1591;SDS011;789;51.612;7.510;2024-01-15T13:28:46;9.20;;;5.10;;
1591;SDS011;789;51.612;7.510;2024-01-15T13:31:16;7.78;;;4.38;;
1591;SDS011;789;51.612;7.510;2024-01-15T13:33:43;5.82;;;3.78;;
1591;SDS011;789;51.612;7.510;2024-01-15T13:36:09;7.57;;;3.63;;
1591;SDS011;789;51.612;7.510;2024-01-15T13:38:36;6.78;;;3.30;;
1591;SDS011;789;51.612;7.510;2024-01-15T13:41:03;4.15;;;3.30;;
1591;SDS011;789;51.612;7.510;2024-01-15T13:43:30;5.78;;;3.63;;
1591;SDS011;789;51.612;7.510;2024-01-15T13:45:59;6.55;;;3.55;;
1591;SDS011;789;51.612;7.510;2024-01-15T13:48:25;6.22;;;3.45;;
1591;SDS011;789;51.612;7.510;2024-01-15T13:50:52;6.13;;;3.33;;
1591;SDS011;789;51.612;7.510;2024-01-15T13:53:19;8.73;;;3.25;;
1591;SDS011;789;51.612;7.510;2024-01-15T13:55:45;4.10;;;3.70;;
1591;SDS011;789;51.612;7.510;2024-01-15T13:58:12;3.75;;;3.10;;
1591;SDS011;789;51.612;7.510;2024-01-15T14:00:39;5.60;;;3.08;;
1591;SDS011;789;51.612;7.510;2024-01-15T14:03:07;7.10;;;2.72;;
1591;SDS011;789;51.612;7.510;2024-01-15T14:05:34;5.10;;;2.65;;
1591;SDS011;789;51.612;7.510;2024-01-15T14:08:01;7.47;;;3.40;;
1591;SDS011;789;51.612;7.510;2024-01-15T14:10:28;3.58;;;2.78;;
1591;SDS011;789;51.612;7.510;2024-01-15T14:12:55;4.47;;;2.30;;
1591;SDS011;789;51.612;7.510;2024-01-15T14:15:21;5.32;;;2.90;;
1591;SDS011;789;51.612;7.510;2024-01-15T14:17:48;5.03;;;2.90;;
1591;SDS011;789;51.612;7.510;2024-01-15T14:20:16;7.07;;;2.63;;
1591;SDS011;789;51.612;7.510;2024-01-15T14:22:43;5.68;;;2.85;;
1591;SDS011;789;51.612;7.510;2024-01-15T14:25:10;3.95;;;2.65;;
1591;SDS011;789;51.612;7.510;2024-01-15T14:27:37;5.32;;;2.65;;
1591;SDS011;789;51.612;7.510;2024-01-15T14:30:04;4.13;;;2.38;;
1591;SDS011;789;51.612;7.510;2024-01-15T14:32:33;4.82;;;2.60;;
1591;SDS011;789;51.612;7.510;2024-01-15T14:35:00;4.65;;;2.60;;
1591;SDS011;789;51.612;7.510;2024-01-15T14:37:31;4.72;;;2.70;;
1591;SDS011;789;51.612;7.510;2024-01-15T14:39:58;6.28;;;2.60;;
1591;SDS011;789;51.612;7.510;2024-01-15T14:42:25;5.60;;;3.00;;
1591;SDS011;789;51.612;7.510;2024-01-15T14:44:53;6.60;;;2.77;;
1591;SDS011;789;51.612;7.510;2024-01-15T14:47:20;3.75;;;2.70;;
1591;SDS011;789;51.612;7.510;2024-01-15T14:49:49;4.40;;;3.10;;
1591;SDS011;789;51.612;7.510;2024-01-15T14:52:16;5.68;;;2.70;;
1591;SDS011;789;51.612;7.510;2024-01-15T14:54:45;5.78;;;3.28;;
1591;SDS011;789;51.612;7.510;2024-01-15T14:57:12;4.35;;;2.53;;
1591;SDS011;789;51.612;7.510;2024-01-15T14:59:39;6.50;;;2.80;;
1591;SDS011;789;51.612;7.510;2024-01-15T15:02:06;5.53;;;2.40;;
1591;SDS011;789;51.612;7.510;2024-01-15T15:04:33;5.35;;;2.22;;
1591;SDS011;789;51.612;7.510;2024-01-15T15:07:00;7.43;;;2.40;;
1591;SDS011;789;51.612;7.510;2024-01-15T15:09:27;3.00;;;1.90;;
1591;SDS011;789;51.612;7.510;2024-01-15T15:11:56;4.88;;;2.38;;
1591;SDS011;789;51.612;7.510;2024-01-15T15:14:23;6.35;;;2.28;;
1591;SDS011;789;51.612;7.510;2024-01-15T15:16:49;3.30;;;2.25;;
1591;SDS011;789;51.612;7.510;2024-01-15T15:19:17;11.50;;;2.80;;
1591;SDS011;789;51.612;7.510;2024-01-15T15:21:44;5.60;;;2.65;;
1591;SDS011;789;51.612;7.510;2024-01-15T15:24:11;6.60;;;2.35;;
1591;SDS011;789;51.612;7.510;2024-01-15T15:26:37;5.30;;;2.67;;
1591;SDS011;789;51.612;7.510;2024-01-15T15:29:05;3.15;;;2.53;;
1591;SDS011;789;51.612;7.510;2024-01-15T15:31:32;4.00;;;2.67;;
1591;SDS011;789;51.612;7.510;2024-01-15T15:33:59;3.05;;;2.42;;
1591;SDS011;789;51.612;7.510;2024-01-15T15:36:26;10.48;;;3.78;;
1591;SDS011;789;51.612;7.510;2024-01-15T15:38:52;7.40;;;3.13;;